createdAt,value
2018-06-19T00:01:17.185Z,62.58
2018-06-19T00:03:45.571Z,62.68
2018-06-19T00:06:13.963Z,63.11
2018-06-19T00:08:42.379Z,63.96
2018-06-19T00:11:11.473Z,63.71
2018-06-19T00:13:40.129Z,63.98
2018-06-19T00:16:08.637Z,64.10
2018-06-19T00:18:40.455Z,64.44
2018-06-19T00:21:10.961Z,65.66
2018-06-19T00:23:39.540Z,65.60
2018-06-19T00:26:07.907Z,65.12
2018-06-19T00:28:39.988Z,65.70
2018-06-19T00:31:08.363Z,65.62
2018-06-19T00:33:36.745Z,66.43
2018-06-19T00:36:05.130Z,65.75
2018-06-19T00:38:33.531Z,65.76
2018-06-19T00:41:01.904Z,65.87
2018-06-19T00:43:30.309Z,66.00
2018-06-19T00:45:59.383Z,66.52
2018-06-19T00:48:27.807Z,67.07
2018-06-19T00:50:56.193Z,66.54
2018-06-19T00:53:24.624Z,67.37
2018-06-19T00:55:53.029Z,67.31
2018-06-19T00:58:21.408Z,67.45
2018-06-19T01:00:49.793Z,66.73
2018-06-19T01:03:18.160Z,67.38
2018-06-19T01:05:46.545Z,67.47
2018-06-19T01:08:14.943Z,68.08
2018-06-19T01:10:43.326Z,67.45
2018-06-19T01:13:11.698Z,68.71
2018-06-19T01:15:40.091Z,68.15
2018-06-19T01:18:08.457Z,68.01
2018-06-19T01:20:36.848Z,68.50
2018-06-19T01:23:05.247Z,68.28
2018-06-19T01:25:33.643Z,67.99
2018-06-19T01:28:02.012Z,67.19
2018-06-19T01:30:30.403Z,66.83
2018-06-19T01:32:58.765Z,67.05
2018-06-19T01:35:27.153Z,67.13
2018-06-19T01:37:55.567Z,67.92
2018-06-19T01:40:23.929Z,67.40
2018-06-19T01:42:52.294Z,68.20
2018-06-19T01:45:20.869Z,68.39
2018-06-19T01:47:49.239Z,68.92
2018-06-19T01:50:17.635Z,68.26
2018-06-19T01:52:46.012Z,69.51
2018-06-19T01:55:14.427Z,68.94
2018-06-19T01:57:42.806Z,69.43
2018-06-19T02:00:11.186Z,70.32
2018-06-19T02:02:39.578Z,70.46
2018-06-19T02:05:08.083Z,69.97
2018-06-19T02:07:36.505Z,70.21
2018-06-19T02:10:04.916Z,70.32
2018-06-19T02:12:33.382Z,70.24
2018-06-19T02:15:01.782Z,71.33
2018-06-19T02:17:30.173Z,71.39
2018-06-19T02:19:58.551Z,70.93
2018-06-19T02:22:26.961Z,70.85
2018-06-19T02:24:55.358Z,71.25
2018-06-19T02:27:23.755Z,71.07
2018-06-19T02:29:52.130Z,71.70
2018-06-19T02:32:20.526Z,71.17
2018-06-19T02:34:48.911Z,71.35
2018-06-19T02:37:17.350Z,71.86
2018-06-19T02:39:45.734Z,71.76
2018-06-19T02:42:14.126Z,71.69
2018-06-19T02:44:42.540Z,72.66
2018-06-19T02:47:10.946Z,72.62
2018-06-19T02:49:39.327Z,72.34
2018-06-19T02:52:07.717Z,72.77
2018-06-19T02:54:36.084Z,72.09
2018-06-19T02:57:04.612Z,72.55
2018-06-19T02:59:32.990Z,72.46
2018-06-19T03:02:01.394Z,72.04
2018-06-19T03:04:29.761Z,72.28
2018-06-19T03:06:58.194Z,72.41
2018-06-19T03:09:26.601Z,72.68
2018-06-19T03:11:55.005Z,72.32
2018-06-19T03:14:23.388Z,71.82
2018-06-19T03:16:51.810Z,72.47
2018-06-19T03:19:20.181Z,71.89
2018-06-19T03:21:48.551Z,71.84
2018-06-19T03:24:16.954Z,71.69
2018-06-19T03:26:45.331Z,71.48
2018-06-19T03:29:13.722Z,71.72
2018-06-19T03:31:42.103Z,71.31
2018-06-19T03:34:10.507Z,72.14
2018-06-19T03:36:38.898Z,71.20
2018-06-19T03:39:09.687Z,72.03
2018-06-19T03:41:38.092Z,71.20
2018-06-19T03:44:06.521Z,72.04
2018-06-19T03:46:34.918Z,71.98
2018-06-19T03:49:03.818Z,71.06
2018-06-19T03:51:32.470Z,71.18
2018-06-19T03:54:01.251Z,71.96
2018-06-19T03:56:30.615Z,71.50
2018-06-19T03:58:59.033Z,70.96
2018-06-19T04:01:27.525Z,71.19
2018-06-19T04:03:56.041Z,71.25
2018-06-19T04:06:28.568Z,70.98
2018-06-19T04:08:56.991Z,70.46
2018-06-19T04:11:25.363Z,70.95
2018-06-19T04:13:53.753Z,70.88
2018-06-19T04:16:22.122Z,70.83
2018-06-19T04:18:50.622Z,70.47
2018-06-19T04:21:19.175Z,69.28
2018-06-19T04:23:47.758Z,69.90
2018-06-19T04:26:16.122Z,68.43
2018-06-19T04:28:44.531Z,68.03
2018-06-19T04:31:13.002Z,67.54
2018-06-19T04:33:41.497Z,67.02
2018-06-19T04:36:09.869Z,66.74
2018-06-19T04:38:38.665Z,66.58
2018-06-19T04:41:07.035Z,66.19
2018-06-19T04:43:35.753Z,66.76
2018-06-19T04:46:04.114Z,65.65
2018-06-19T04:48:32.499Z,65.61
2018-06-19T04:51:00.898Z,65.22
2018-06-19T04:53:29.542Z,65.83
2018-06-19T04:55:57.955Z,65.56
2018-06-19T04:58:26.318Z,63.92
2018-06-19T05:00:54.759Z,63.59
2018-06-19T05:03:23.137Z,63.58
2018-06-19T05:05:51.554Z,63.74
2018-06-19T05:08:19.960Z,62.71
2018-06-19T05:10:48.357Z,62.74
2018-06-19T05:13:16.751Z,62.17
2018-06-19T05:15:45.239Z,62.19
2018-06-19T05:18:13.623Z,63.20
2018-06-19T05:20:42.029Z,62.94
2018-06-19T05:23:10.406Z,62.80
2018-06-19T05:25:38.811Z,62.71
2018-06-19T05:28:07.199Z,63.08
2018-06-19T05:30:35.607Z,62.66
2018-06-19T05:33:04.098Z,62.74
2018-06-19T05:35:32.491Z,61.67
2018-06-19T05:38:00.862Z,61.07
2018-06-19T05:40:29.282Z,61.10
2018-06-19T05:42:57.651Z,59.57
2018-06-19T05:45:26.046Z,59.59
2018-06-19T05:47:54.422Z,60.04
2018-06-19T05:50:22.828Z,58.89
2018-06-19T05:52:51.671Z,58.52
2018-06-19T05:55:20.037Z,58.03
2018-06-19T05:57:48.405Z,58.32
2018-06-19T06:00:16.881Z,57.68
2018-06-19T06:02:45.365Z,57.42
2018-06-19T06:05:13.839Z,56.09
2018-06-19T06:07:42.260Z,56.79
2018-06-19T06:10:10.653Z,56.51
2018-06-19T06:12:39.047Z,56.41
2018-06-19T06:15:07.428Z,56.81
2018-06-19T06:17:35.813Z,55.57
2018-06-19T06:20:04.574Z,55.52
2018-06-19T06:22:32.968Z,55.86
2018-06-19T06:25:01.325Z,56.05
2018-06-19T06:27:29.717Z,55.12
2018-06-19T06:29:58.092Z,55.43
2018-06-19T06:32:26.480Z,54.74
2018-06-19T06:34:54.846Z,55.61
2018-06-19T06:37:23.232Z,54.87
2018-06-19T06:39:51.596Z,53.74
2018-06-19T06:42:19.991Z,54.53
2018-06-19T06:44:48.382Z,52.95
2018-06-19T06:47:16.795Z,52.45
2018-06-19T06:49:45.187Z,52.64
2018-06-19T06:52:13.565Z,53.60
2018-06-19T06:54:41.938Z,53.08
2018-06-19T06:57:10.354Z,53.50
2018-06-19T06:59:38.725Z,53.40
2018-06-19T07:02:07.110Z,53.29
2018-06-19T07:04:35.483Z,53.06
2018-06-19T07:07:03.873Z,53.17
2018-06-19T07:09:32.264Z,53.14
2018-06-19T07:12:00.653Z,53.09
2018-06-19T07:14:29.017Z,53.05
2018-06-19T07:16:57.411Z,52.35
2018-06-19T07:19:25.821Z,52.10
2018-06-19T07:21:54.207Z,52.22
2018-06-19T07:24:22.583Z,51.64
2018-06-19T07:26:50.963Z,52.09
2018-06-19T07:29:19.352Z,52.00
2018-06-19T07:31:47.835Z,52.06
2018-06-19T07:34:16.226Z,51.12
2018-06-19T07:36:44.601Z,50.35
2018-06-19T07:39:12.986Z,50.63
2018-06-19T07:41:41.353Z,50.48
2018-06-19T07:44:09.791Z,50.58
2018-06-19T07:46:38.150Z,49.73
2018-06-19T07:49:06.544Z,49.56
2018-06-19T07:51:34.905Z,48.82
2018-06-19T07:54:03.489Z,48.31
2018-06-19T07:56:31.849Z,48.45
2018-06-19T07:59:00.314Z,48.93
2018-06-19T08:01:28.669Z,48.30
2018-06-19T08:03:57.057Z,48.04
2018-06-19T08:06:25.432Z,49.31
2018-06-19T08:08:53.842Z,48.67
2018-06-19T08:11:22.208Z,48.11
2018-06-19T08:13:50.599Z,47.72
2018-06-19T08:16:18.979Z,47.87
2018-06-19T08:18:47.406Z,47.36
2018-06-19T08:21:15.769Z,47.32
2018-06-19T08:23:44.153Z,48.13
2018-06-19T08:26:12.519Z,47.15
2018-06-19T08:28:40.932Z,47.52
2018-06-19T08:31:09.566Z,47.47
2018-06-19T08:33:37.947Z,46.97
2018-06-19T08:36:06.318Z,47.26
2018-06-19T08:38:34.697Z,46.77
2018-06-19T08:41:03.058Z,46.56
2018-06-19T08:43:31.446Z,46.04
2018-06-19T08:45:59.807Z,46.41
2018-06-19T08:48:28.166Z,47.37
2018-06-19T08:50:56.564Z,46.45
2018-06-19T08:53:24.961Z,47.25
2018-06-19T08:55:53.355Z,47.51
2018-06-19T08:58:21.715Z,47.85
2018-06-19T09:00:50.237Z,47.06
2018-06-19T09:03:18.590Z,47.80
2018-06-19T09:05:46.990Z,46.54
2018-06-19T09:08:15.399Z,47.08
2018-06-19T09:10:43.801Z,47.06
2018-06-19T09:13:12.169Z,47.23
2018-06-19T09:15:40.567Z,46.48
2018-06-19T09:18:08.933Z,46.45
2018-06-19T09:20:37.340Z,47.20
2018-06-19T09:23:05.860Z,46.23
2018-06-19T09:25:34.261Z,47.50
2018-06-19T09:28:02.626Z,46.75
2018-06-19T09:30:31.021Z,47.40
2018-06-19T09:32:59.407Z,47.04
2018-06-19T09:35:27.818Z,46.82
2018-06-19T09:37:56.200Z,46.60
2018-06-19T09:40:24.599Z,45.86
2018-06-19T09:42:52.977Z,45.16
2018-06-19T09:45:21.379Z,46.46
2018-06-19T09:47:49.755Z,45.92
2018-06-19T09:50:18.154Z,45.81
2018-06-19T09:52:46.582Z,44.31
2018-06-19T09:55:14.993Z,44.63
2018-06-19T09:57:43.366Z,45.46
2018-06-19T10:00:11.773Z,44.86
2018-06-19T10:02:40.189Z,44.98
2018-06-19T10:05:08.594Z,44.86
2018-06-19T10:07:37.056Z,44.99
2018-06-19T10:10:05.479Z,43.60
2018-06-19T10:12:33.876Z,44.04
2018-06-19T10:15:02.258Z,43.53
2018-06-19T10:17:30.677Z,44.78
2018-06-19T10:19:59.065Z,44.27
2018-06-19T10:22:27.461Z,44.56
2018-06-19T10:24:55.919Z,43.84
2018-06-19T10:27:24.309Z,43.76
2018-06-19T10:29:52.685Z,43.41
2018-06-19T10:32:21.073Z,44.37
2018-06-19T10:34:49.452Z,43.71
2018-06-19T10:37:17.847Z,44.23
2018-06-19T10:39:46.226Z,44.08
2018-06-19T10:42:14.623Z,42.73
2018-06-19T10:44:43.001Z,43.33
2018-06-19T10:47:11.401Z,43.28
2018-06-19T10:49:39.922Z,43.77
2018-06-19T10:52:08.393Z,42.65
2018-06-19T10:54:36.768Z,43.27
2018-06-19T10:57:05.183Z,42.74
2018-06-19T10:59:33.564Z,43.59
2018-06-19T11:02:01.967Z,42.77
2018-06-19T11:04:30.345Z,42.54
2018-06-19T11:06:59.078Z,42.78
2018-06-19T11:09:27.470Z,42.63
2018-06-19T11:11:55.879Z,42.53
2018-06-19T11:14:24.246Z,42.78
2018-06-19T11:16:52.675Z,42.56
2018-06-19T11:19:21.047Z,43.33
2018-06-19T11:21:49.442Z,43.41
2018-06-19T11:24:17.810Z,43.45
2018-06-19T11:26:46.213Z,42.17
2018-06-19T11:29:14.582Z,42.64
2018-06-19T11:31:42.953Z,42.89
2018-06-19T11:34:11.338Z,43.47
2018-06-19T11:36:39.717Z,42.84
2018-06-19T11:39:09.809Z,43.04
2018-06-19T11:41:38.190Z,43.45
2018-06-19T11:44:06.749Z,44.00
2018-06-19T11:46:35.115Z,43.95
2018-06-19T11:49:03.616Z,44.53
2018-06-19T11:51:31.992Z,45.55
2018-06-19T11:54:00.877Z,44.90
2018-06-19T11:56:29.234Z,46.22
2018-06-19T11:58:57.617Z,46.54
2018-06-19T12:01:25.981Z,46.24
2018-06-19T12:03:54.370Z,45.74
2018-06-19T12:06:22.743Z,46.74
2018-06-19T12:08:51.154Z,46.55
2018-06-19T12:11:19.518Z,46.50
2018-06-19T12:13:47.903Z,47.38
2018-06-19T12:16:16.271Z,46.87
2018-06-19T12:18:44.738Z,46.96
2018-06-19T12:21:13.102Z,46.38
2018-06-19T12:23:41.511Z,45.66
2018-06-19T12:26:09.890Z,46.41
2018-06-19T12:28:38.273Z,46.49
2018-06-19T12:31:06.735Z,47.64
2018-06-19T12:33:35.154Z,46.55
2018-06-19T12:36:03.713Z,46.32
2018-06-19T12:38:32.145Z,47.27
2018-06-19T12:41:00.499Z,46.24
2018-06-19T12:43:28.881Z,45.74
2018-06-19T12:45:57.259Z,46.54
2018-06-19T12:48:25.677Z,45.91
2018-06-19T12:52:06.327Z,47.14
2018-06-19T12:54:54.491Z,46.45
2018-06-19T12:57:22.855Z,45.88
2018-06-19T12:59:51.241Z,45.96
2018-06-19T13:02:19.631Z,46.08
2018-06-19T13:04:59.435Z,45.50
2018-06-19T13:07:28.303Z,45.54
2018-06-19T13:09:56.916Z,45.78
2018-06-19T13:12:36.733Z,44.90
2018-06-19T13:15:05.126Z,45.13
2018-06-19T13:17:44.979Z,45.86
2018-06-19T13:20:24.915Z,45.54
2018-06-19T13:22:53.379Z,46.08
2018-06-19T13:25:21.779Z,45.67
2018-06-19T13:27:50.240Z,45.14
2018-06-19T13:30:29.986Z,45.71
2018-06-19T13:32:58.349Z,45.27
2018-06-19T13:35:26.794Z,45.07
2018-06-19T13:37:55.148Z,45.67
2018-06-19T13:41:32.508Z,46.06
2018-06-19T13:45:09.543Z,45.76
2018-06-19T13:47:37.913Z,44.70
2018-06-19T13:50:06.284Z,45.27
2018-06-19T13:52:35.030Z,44.52
2018-06-19T13:57:35.244Z,44.64
2018-06-19T14:00:04.918Z,44.93
2018-06-19T14:02:33.330Z,45.22
2018-06-19T14:05:02.195Z,45.12
2018-06-19T14:07:32.776Z,45.18
2018-06-19T14:10:21.579Z,46.23
2018-06-19T14:13:04.907Z,44.44
2018-06-19T14:15:39.467Z,44.85
2018-06-19T14:18:08.248Z,45.33
2018-06-19T14:20:36.942Z,44.92
2018-06-19T14:23:05.475Z,46.23
2018-06-19T14:25:33.878Z,45.94
2018-06-19T14:28:02.242Z,46.05
2018-06-19T14:30:30.625Z,45.42
2018-06-19T14:32:59.153Z,45.88
2018-06-19T14:35:27.539Z,44.85
2018-06-19T14:37:55.925Z,44.46
2018-06-19T14:40:24.344Z,44.82
2018-06-19T14:42:52.723Z,44.95
2018-06-19T14:45:21.111Z,45.26
2018-06-19T14:47:49.477Z,45.72
2018-06-19T14:50:17.861Z,45.60
2018-06-19T14:52:46.217Z,45.15
2018-06-19T14:55:14.607Z,44.95
2018-06-19T14:57:42.969Z,44.32
2018-06-19T15:00:12.017Z,44.54
2018-06-19T15:02:40.801Z,44.58
2018-06-19T15:05:09.393Z,43.69
2018-06-19T15:07:54.135Z,43.98
2018-06-19T15:10:23.149Z,43.40
2018-06-19T15:12:51.706Z,43.20
2018-06-19T15:15:20.085Z,43.52
2018-06-19T15:17:48.454Z,42.97
2018-06-19T15:20:16.933Z,42.06
2018-06-19T15:22:45.425Z,43.02
2018-06-19T15:25:13.815Z,42.62
2018-06-19T15:27:42.177Z,43.12
2018-06-19T15:30:10.576Z,42.67
2018-06-19T15:32:38.949Z,43.68
2018-06-19T15:35:07.365Z,43.50
2018-06-19T15:37:35.734Z,44.00
2018-06-19T15:40:04.135Z,43.68
2018-06-19T15:42:32.546Z,44.45
2018-06-19T15:45:00.924Z,43.82
2018-06-19T15:47:29.313Z,43.34
2018-06-19T15:49:57.683Z,43.47
2018-06-19T15:52:26.082Z,44.26
2018-06-19T15:54:54.441Z,43.40
2018-06-19T15:57:22.891Z,44.02
2018-06-19T15:59:51.239Z,43.96
2018-06-19T16:02:19.639Z,44.00
2018-06-19T16:04:48.019Z,42.93
2018-06-19T16:07:16.417Z,43.51
2018-06-19T16:09:44.809Z,43.06
2018-06-19T16:12:13.257Z,43.25
2018-06-19T16:14:41.617Z,42.33
2018-06-19T16:17:10.002Z,42.00
2018-06-19T16:19:38.366Z,42.43
2018-06-19T16:22:06.764Z,43.21
2018-06-19T16:24:35.129Z,43.16
2018-06-19T16:27:03.627Z,42.14
2018-06-19T16:29:32.019Z,41.56
2018-06-19T16:32:00.420Z,41.74
2018-06-19T16:34:28.807Z,40.88
2018-06-19T16:36:57.211Z,40.55
2018-06-19T16:39:25.582Z,40.31
2018-06-19T16:41:53.975Z,39.71
2018-06-19T16:44:22.338Z,40.19
2018-06-19T16:46:50.721Z,40.13
2018-06-19T16:49:19.095Z,41.94
2018-06-19T16:51:47.485Z,42.73
2018-06-19T16:54:15.838Z,42.30
2018-06-19T16:56:44.235Z,43.44
2018-06-19T16:59:12.606Z,43.16
2018-06-19T17:01:40.979Z,43.00
2018-06-19T17:04:09.409Z,43.45
2018-06-19T17:06:37.774Z,43.25
2018-06-19T17:09:07.535Z,42.62
2018-06-19T17:11:36.058Z,42.73
2018-06-19T17:14:04.675Z,42.10
2018-06-19T17:16:33.079Z,42.28
2018-06-19T17:19:01.479Z,42.60
2018-06-19T17:21:30.209Z,44.04
2018-06-19T17:23:58.906Z,43.54
2018-06-19T17:26:27.266Z,43.57
2018-06-19T17:28:55.653Z,43.78
2018-06-19T17:31:24.031Z,44.03
2018-06-19T17:33:52.424Z,43.52
2018-06-19T17:36:20.800Z,41.92
2018-06-19T17:38:49.191Z,42.11
2018-06-19T17:41:17.556Z,40.61
2018-06-19T17:43:46.039Z,41.39
2018-06-19T17:46:14.429Z,40.98
2018-06-19T17:48:43.666Z,42.52
2018-06-19T17:51:12.037Z,43.35
2018-06-19T17:53:40.401Z,42.97
2018-06-19T17:56:09.062Z,44.63
2018-06-19T17:58:37.439Z,45.42
2018-06-19T18:01:06.175Z,45.44
2018-06-19T18:03:34.555Z,46.58
2018-06-19T18:06:02.959Z,47.31
2018-06-19T18:08:31.355Z,46.82
2018-06-19T18:10:59.744Z,47.05
2018-06-19T18:13:28.115Z,48.17
2018-06-19T18:15:56.500Z,47.53
2018-06-19T18:18:25.067Z,48.50
2018-06-19T18:20:53.471Z,48.49
2018-06-19T18:23:21.871Z,48.01
2018-06-19T18:25:50.525Z,48.18
2018-06-19T18:28:18.887Z,48.69
2018-06-19T18:30:47.298Z,48.91
2018-06-19T18:33:15.670Z,49.43
2018-06-19T18:35:44.053Z,49.47
2018-06-19T18:38:12.445Z,49.80
2018-06-19T18:40:40.943Z,51.08
2018-06-19T18:43:09.575Z,50.51
2018-06-19T18:45:38.284Z,50.80
2018-06-19T18:48:06.645Z,51.31
2018-06-19T18:50:35.058Z,52.29
2018-06-19T18:53:03.426Z,52.01
2018-06-19T18:55:31.820Z,52.84
2018-06-19T18:58:00.197Z,53.03
2018-06-19T19:00:28.578Z,52.92
2018-06-19T19:02:57.047Z,52.98
2018-06-19T19:05:25.426Z,53.81
2018-06-19T19:07:53.824Z,53.25
2018-06-19T19:10:27.556Z,54.36
2018-06-19T19:12:55.934Z,54.25
2018-06-19T19:15:29.913Z,54.20
2018-06-19T19:19:01.303Z,54.43
2018-06-19T19:21:29.689Z,55.07
2018-06-19T19:23:58.057Z,54.79
2018-06-19T19:26:31.806Z,55.62
2018-06-19T19:29:05.389Z,55.35
2018-06-19T19:31:33.839Z,55.66
2018-06-19T19:34:02.249Z,55.83
2018-06-19T19:36:35.925Z,56.28
2018-06-19T19:39:42.078Z,57.01
2018-06-19T19:42:10.477Z,57.05
2018-06-19T19:44:38.852Z,56.77
2018-06-19T19:47:12.525Z,56.86
2018-06-19T19:49:41.084Z,56.68
2018-06-19T19:52:09.635Z,56.54
2018-06-19T19:54:38.006Z,56.77
2018-06-19T19:57:11.711Z,57.12
2018-06-19T19:59:40.133Z,57.26
2018-06-19T20:02:08.754Z,57.56
2018-06-19T20:04:37.131Z,57.26
2018-06-19T20:07:05.571Z,57.33
2018-06-19T20:09:33.965Z,56.40
2018-06-19T20:12:02.340Z,56.96
2018-06-19T20:14:30.743Z,56.29
2018-06-19T20:16:59.117Z,56.32
2018-06-19T20:19:27.517Z,56.88
2018-06-19T20:21:55.896Z,56.85
2018-06-19T20:24:24.307Z,56.46
2018-06-19T20:26:52.686Z,57.00
2018-06-19T20:29:21.076Z,56.83
2018-06-19T20:31:49.451Z,57.63
2018-06-19T20:34:17.849Z,57.38
2018-06-19T20:36:46.311Z,57.83
2018-06-19T20:39:14.719Z,57.90
2018-06-19T20:41:43.093Z,58.15
2018-06-19T20:44:11.482Z,57.83
2018-06-19T20:46:39.851Z,57.17
2018-06-19T20:49:08.250Z,56.85
2018-06-19T20:51:36.665Z,55.58
2018-06-19T20:54:05.055Z,55.92
2018-06-19T20:56:33.431Z,54.43
2018-06-19T20:59:01.949Z,53.17
2018-06-19T21:01:30.331Z,53.09
2018-06-19T21:03:58.730Z,52.45
2018-06-19T21:06:27.097Z,51.95
2018-06-19T21:08:55.517Z,51.24
2018-06-19T21:11:23.887Z,52.16
2018-06-19T21:13:52.335Z,52.36
2018-06-19T21:16:20.687Z,51.96
2018-06-19T21:18:49.142Z,51.44
2018-06-19T21:21:17.497Z,52.21
2018-06-19T21:23:45.859Z,51.66
2018-06-19T21:26:14.247Z,51.56
2018-06-19T21:28:42.618Z,52.12
2018-06-19T21:31:11.006Z,51.75
2018-06-19T21:33:39.382Z,51.59
2018-06-19T21:36:07.777Z,52.58
2018-06-19T21:38:36.154Z,51.99
2018-06-19T21:41:04.553Z,52.04
2018-06-19T21:43:32.914Z,52.57
2018-06-19T21:46:01.294Z,52.95
2018-06-19T21:48:29.686Z,53.30
2018-06-19T21:50:58.214Z,52.97
2018-06-19T21:53:26.582Z,52.90
2018-06-19T21:55:56.617Z,53.04
2018-06-19T21:58:24.982Z,53.93
2018-06-19T22:00:53.377Z,53.36
2018-06-19T22:03:21.749Z,54.41
2018-06-19T22:05:50.135Z,54.30
2018-06-19T22:08:18.545Z,53.97
2018-06-19T22:10:46.948Z,54.04
2018-06-19T22:13:15.309Z,54.89
2018-06-19T22:15:43.699Z,55.13
2018-06-19T22:18:12.061Z,55.42
2018-06-19T22:20:40.441Z,54.70
2018-06-19T22:23:08.815Z,55.67
2018-06-19T22:25:37.221Z,55.86
2018-06-19T22:28:05.741Z,55.30
2018-06-19T22:30:34.125Z,56.23
2018-06-19T22:33:02.493Z,55.76
2018-06-19T22:35:30.883Z,55.74
2018-06-19T22:37:59.251Z,55.88
2018-06-19T22:40:27.619Z,56.03
2018-06-19T22:42:56.006Z,56.13
2018-06-19T22:45:24.459Z,56.89
2018-06-19T22:47:52.913Z,56.83
2018-06-19T22:50:21.273Z,57.25
2018-06-19T22:52:49.673Z,57.18
2018-06-19T22:55:18.042Z,57.96
2018-06-19T22:57:46.438Z,57.66
2018-06-19T23:00:14.860Z,57.50
2018-06-19T23:02:43.254Z,57.85
2018-06-19T23:05:11.609Z,58.15
2018-06-19T23:07:40.018Z,58.44
2018-06-19T23:10:08.395Z,58.38
2018-06-19T23:12:36.781Z,58.53
2018-06-19T23:15:05.193Z,58.60
2018-06-19T23:17:33.587Z,58.66
2018-06-19T23:20:01.959Z,58.23
2018-06-19T23:22:30.350Z,58.36
2018-06-19T23:24:58.710Z,59.30
2018-06-19T23:27:27.097Z,58.70
2018-06-19T23:29:55.475Z,59.46
2018-06-19T23:32:23.862Z,58.97
2018-06-19T23:34:52.225Z,59.27
2018-06-19T23:37:20.613Z,59.83
2018-06-19T23:39:48.973Z,59.38
2018-06-19T23:42:17.386Z,60.12
2018-06-19T23:44:45.807Z,59.91
2018-06-19T23:47:14.205Z,59.72
2018-06-19T23:49:42.625Z,60.45
2018-06-19T23:52:11.024Z,60.11
2018-06-19T23:54:39.399Z,60.17
2018-06-19T23:57:07.795Z,60.18
2018-06-19T23:59:36.158Z,60.31
